sensor_id;sensor_type;location;lat;lon;timestamp;P1;durP1;ratioP1;P2;durP2;ratioP2
36105;SDS011;22159;55.736;38.048;2023-02-28T00:02:21;0.63;;;0.50;;
36105;SDS011;22159;55.736;38.048;2023-02-28T00:04:47;1.90;;;0.55;;
36105;SDS011;22159;55.736;38.048;2023-02-28T00:07:18;0.95;;;0.50;;
36105;SDS011;22159;55.736;38.048;2023-02-28T00:09:44;0.93;;;0.50;;
36105;SDS011;22159;55.736;38.048;2023-02-28T00:12:10;1.35;;;0.70;;
36105;SDS011;22159;55.736;38.048;2023-02-28T00:14:40;1.73;;;0.70;;
36105;SDS011;22159;55.736;38.048;2023-02-28T00:17:06;0.65;;;0.57;;
36105;SDS011;22159;55.736;38.048;2023-02-28T00:19:32;1.17;;;0.82;;
36105;SDS011;22159;55.736;38.048;2023-02-28T00:21:58;0.63;;;0.63;;
36105;SDS011;22159;55.736;38.048;2023-02-28T00:24:24;1.10;;;0.65;;
36105;SDS011;22159;55.736;38.048;2023-02-28T00:26:50;0.95;;;0.70;;
36105;SDS011;22159;55.736;38.048;2023-02-28T00:29:16;0.60;;;0.50;;
36105;SDS011;22159;55.736;38.048;2023-02-28T00:31:42;0.40;;;0.40;;
36105;SDS011;22159;55.736;38.048;2023-02-28T00:34:08;1.05;;;0.60;;
36105;SDS011;22159;55.736;38.048;2023-02-28T00:36:34;1.27;;;0.60;;
36105;SDS011;22159;55.736;38.048;2023-02-28T00:39:00;0.60;;;0.60;;
36105;SDS011;22159;55.736;38.048;2023-02-28T00:41:26;1.08;;;0.45;;
36105;SDS011;22159;55.736;38.048;2023-02-28T00:43:52;0.80;;;0.70;;
36105;SDS011;22159;55.736;38.048;2023-02-28T00:46:18;0.90;;;0.50;;
36105;SDS011;22159;55.736;38.048;2023-02-28T00:48:44;0.45;;;0.45;;
36105;SDS011;22159;55.736;38.048;2023-02-28T00:51:10;0.70;;;0.50;;
36105;SDS011;22159;55.736;38.048;2023-02-28T00:53:36;1.77;;;0.50;;
36105;SDS011;22159;55.736;38.048;2023-02-28T00:56:02;1.00;;;0.60;;
36105;SDS011;22159;55.736;38.048;2023-02-28T00:58:29;0.73;;;0.52;;
36105;SDS011;22159;55.736;38.048;2023-02-28T01:00:55;1.50;;;0.60;;
36105;SDS011;22159;55.736;38.048;2023-02-28T01:03:21;1.35;;;0.70;;
36105;SDS011;22159;55.736;38.048;2023-02-28T01:05:47;1.15;;;0.60;;
36105;SDS011;22159;55.736;38.048;2023-02-28T01:08:14;1.05;;;0.60;;
36105;SDS011;22159;55.736;38.048;2023-02-28T01:10:40;1.85;;;0.60;;
36105;SDS011;22159;55.736;38.048;2023-02-28T01:13:06;1.02;;;0.50;;
36105;SDS011;22159;55.736;38.048;2023-02-28T01:15:32;0.85;;;0.60;;
36105;SDS011;22159;55.736;38.048;2023-02-28T01:17:58;1.42;;;0.50;;
36105;SDS011;22159;55.736;38.048;2023-02-28T01:20:24;1.02;;;0.60;;
36105;SDS011;22159;55.736;38.048;2023-02-28T01:22:50;0.55;;;0.55;;
36105;SDS011;22159;55.736;38.048;2023-02-28T01:25:16;0.40;;;0.40;;
36105;SDS011;22159;55.736;38.048;2023-02-28T01:27:42;1.13;;;0.60;;
36105;SDS011;22159;55.736;38.048;2023-02-28T01:30:09;0.60;;;0.60;;
36105;SDS011;22159;55.736;38.048;2023-02-28T01:32:35;0.77;;;0.55;;
36105;SDS011;22159;55.736;38.048;2023-02-28T01:35:01;1.15;;;0.50;;
36105;SDS011;22159;55.736;38.048;2023-02-28T01:37:27;0.65;;;0.50;;
36105;SDS011;22159;55.736;38.048;2023-02-28T01:39:53;0.68;;;0.65;;
36105;SDS011;22159;55.736;38.048;2023-02-28T01:42:19;1.35;;;0.60;;
36105;SDS011;22159;55.736;38.048;2023-02-28T01:47:21;0.88;;;0.60;;
36105;SDS011;22159;55.736;38.048;2023-02-28T01:49:48;1.95;;;0.50;;
36105;SDS011;22159;55.736;38.048;2023-02-28T01:52:16;1.65;;;0.70;;
36105;SDS011;22159;55.736;38.048;2023-02-28T01:54:43;0.82;;;0.80;;
36105;SDS011;22159;55.736;38.048;2023-02-28T01:57:13;2.00;;;0.60;;
36105;SDS011;22159;55.736;38.048;2023-02-28T01:59:45;0.82;;;0.60;;
36105;SDS011;22159;55.736;38.048;2023-02-28T02:02:17;1.63;;;0.57;;
36105;SDS011;22159;55.736;38.048;2023-02-28T02:04:59;1.55;;;0.80;;
36105;SDS011;22159;55.736;38.048;2023-02-28T02:07:26;1.05;;;0.70;;
36105;SDS011;22159;55.736;38.048;2023-02-28T02:10:02;1.67;;;0.80;;
36105;SDS011;22159;55.736;38.048;2023-02-28T02:12:44;1.63;;;0.93;;
36105;SDS011;22159;55.736;38.048;2023-02-28T02:15:16;1.00;;;0.80;;
36105;SDS011;22159;55.736;38.048;2023-02-28T02:17:44;1.45;;;1.00;;
36105;SDS011;22159;55.736;38.048;2023-02-28T02:27:57;2.08;;;0.85;;
36105;SDS011;22159;55.736;38.048;2023-02-28T02:40:57;1.73;;;0.80;;
36105;SDS011;22159;55.736;38.048;2023-02-28T02:43:19;1.50;;;0.82;;
36105;SDS011;22159;55.736;38.048;2023-02-28T02:45:47;1.90;;;0.90;;
36105;SDS011;22159;55.736;38.048;2023-02-28T02:48:16;1.08;;;0.82;;
36105;SDS011;22159;55.736;38.048;2023-02-28T02:50:44;1.58;;;0.80;;
36105;SDS011;22159;55.736;38.048;2023-02-28T02:53:11;1.25;;;0.90;;
36105;SDS011;22159;55.736;38.048;2023-02-28T02:55:40;2.38;;;1.08;;
36105;SDS011;22159;55.736;38.048;2023-02-28T02:58:16;1.40;;;1.00;;
36105;SDS011;22159;55.736;38.048;2023-02-28T03:00:48;0.65;;;0.55;;
36105;SDS011;22159;55.736;38.048;2023-02-28T03:03:15;1.35;;;0.80;;
36105;SDS011;22159;55.736;38.048;2023-02-28T03:05:46;1.13;;;0.80;;
36105;SDS011;22159;55.736;38.048;2023-02-28T03:08:12;1.13;;;0.80;;
36105;SDS011;22159;55.736;38.048;2023-02-28T03:10:40;1.67;;;1.00;;
36105;SDS011;22159;55.736;38.048;2023-02-28T03:13:55;1.38;;;0.80;;
36105;SDS011;22159;55.736;38.048;2023-02-28T03:24:31;3.28;;;0.82;;
36105;SDS011;22159;55.736;38.048;2023-02-28T03:26:45;1.17;;;1.08;;
36105;SDS011;22159;55.736;38.048;2023-02-28T03:29:18;1.20;;;0.98;;
36105;SDS011;22159;55.736;38.048;2023-02-28T03:31:48;1.20;;;0.95;;
36105;SDS011;22159;55.736;38.048;2023-02-28T03:34:24;1.73;;;0.70;;
36105;SDS011;22159;55.736;38.048;2023-02-28T03:36:52;1.98;;;0.70;;
36105;SDS011;22159;55.736;38.048;2023-02-28T03:39:20;1.10;;;0.93;;
36105;SDS011;22159;55.736;38.048;2023-02-28T03:41:49;2.03;;;0.82;;
36105;SDS011;22159;55.736;38.048;2023-02-28T03:44:18;2.00;;;0.80;;
36105;SDS011;22159;55.736;38.048;2023-02-28T03:46:48;1.30;;;0.80;;
36105;SDS011;22159;55.736;38.048;2023-02-28T03:51:41;1.23;;;0.93;;
36105;SDS011;22159;55.736;38.048;2023-02-28T03:54:09;2.72;;;0.80;;
36105;SDS011;22159;55.736;38.048;2023-02-28T03:56:38;1.42;;;0.93;;
36105;SDS011;22159;55.736;38.048;2023-02-28T03:59:26;6.97;;;2.92;;
36105;SDS011;22159;55.736;38.048;2023-02-28T04:01:51;5.85;;;2.22;;
36105;SDS011;22159;55.736;38.048;2023-02-28T04:04:17;5.10;;;2.20;;
36105;SDS011;22159;55.736;38.048;2023-02-28T04:06:44;3.63;;;1.73;;
36105;SDS011;22159;55.736;38.048;2023-02-28T04:09:11;4.00;;;1.70;;
36105;SDS011;22159;55.736;38.048;2023-02-28T04:11:38;2.72;;;1.30;;
36105;SDS011;22159;55.736;38.048;2023-02-28T04:14:04;2.75;;;1.48;;
36105;SDS011;22159;55.736;38.048;2023-02-28T04:16:31;3.17;;;1.20;;
36105;SDS011;22159;55.736;38.048;2023-02-28T04:18:58;1.55;;;1.08;;
36105;SDS011;22159;55.736;38.048;2023-02-28T04:21:30;2.15;;;1.10;;
36105;SDS011;22159;55.736;38.048;2023-02-28T04:23:56;1.95;;;1.00;;
36105;SDS011;22159;55.736;38.048;2023-02-28T04:26:27;4.05;;;1.20;;
36105;SDS011;22159;55.736;38.048;2023-02-28T04:28:54;3.25;;;1.20;;
36105;SDS011;22159;55.736;38.048;2023-02-28T04:31:21;3.65;;;1.40;;
36105;SDS011;22159;55.736;38.048;2023-02-28T04:33:47;3.42;;;1.30;;
36105;SDS011;22159;55.736;38.048;2023-02-28T04:36:13;5.20;;;1.13;;
36105;SDS011;22159;55.736;38.048;2023-02-28T04:38:39;3.15;;;1.00;;
36105;SDS011;22159;55.736;38.048;2023-02-28T04:41:05;2.83;;;0.95;;
36105;SDS011;22159;55.736;38.048;2023-02-28T04:43:32;1.17;;;0.90;;
36105;SDS011;22159;55.736;38.048;2023-02-28T04:46:00;2.58;;;0.93;;
36105;SDS011;22159;55.736;38.048;2023-02-28T04:48:30;1.08;;;0.90;;
36105;SDS011;22159;55.736;38.048;2023-02-28T04:51:00;1.80;;;0.98;;
36105;SDS011;22159;55.736;38.048;2023-02-28T04:53:27;1.27;;;0.75;;
36105;SDS011;22159;55.736;38.048;2023-02-28T04:55:54;1.73;;;1.13;;
36105;SDS011;22159;55.736;38.048;2023-02-28T04:58:20;2.65;;;1.10;;
36105;SDS011;22159;55.736;38.048;2023-02-28T05:00:52;1.83;;;1.00;;
36105;SDS011;22159;55.736;38.048;2023-02-28T05:03:19;1.60;;;1.00;;
36105;SDS011;22159;55.736;38.048;2023-02-28T05:05:45;1.60;;;1.20;;
36105;SDS011;22159;55.736;38.048;2023-02-28T05:08:12;1.60;;;0.80;;
36105;SDS011;22159;55.736;38.048;2023-02-28T05:10:38;2.15;;;0.85;;
36105;SDS011;22159;55.736;38.048;2023-02-28T05:13:04;5.70;;;1.35;;
36105;SDS011;22159;55.736;38.048;2023-02-28T05:15:30;3.03;;;0.80;;
36105;SDS011;22159;55.736;38.048;2023-02-28T05:17:56;2.15;;;0.80;;
36105;SDS011;22159;55.736;38.048;2023-02-28T05:20:22;2.63;;;1.27;;
36105;SDS011;22159;55.736;38.048;2023-02-28T05:22:49;4.40;;;1.10;;
36105;SDS011;22159;55.736;38.048;2023-02-28T05:25:17;3.22;;;1.27;;
36105;SDS011;22159;55.736;38.048;2023-02-28T05:27:43;4.05;;;1.00;;
36105;SDS011;22159;55.736;38.048;2023-02-28T05:30:09;4.32;;;1.00;;
36105;SDS011;22159;55.736;38.048;2023-02-28T05:32:36;4.40;;;1.25;;
36105;SDS011;22159;55.736;38.048;2023-02-28T05:35:02;3.63;;;1.20;;
36105;SDS011;22159;55.736;38.048;2023-02-28T05:37:29;6.30;;;1.55;;
36105;SDS011;22159;55.736;38.048;2023-02-28T05:39:55;2.80;;;1.42;;
36105;SDS011;22159;55.736;38.048;2023-02-28T05:42:21;3.67;;;1.15;;
36105;SDS011;22159;55.736;38.048;2023-02-28T05:44:47;6.20;;;1.38;;
36105;SDS011;22159;55.736;38.048;2023-02-28T05:47:13;6.43;;;1.10;;
36105;SDS011;22159;55.736;38.048;2023-02-28T05:49:40;4.15;;;1.40;;
36105;SDS011;22159;55.736;38.048;2023-02-28T05:52:06;6.15;;;1.27;;
36105;SDS011;22159;55.736;38.048;2023-02-28T05:54:32;1.42;;;1.00;;
36105;SDS011;22159;55.736;38.048;2023-02-28T05:56:59;5.07;;;1.23;;
36105;SDS011;22159;55.736;38.048;2023-02-28T05:59:25;2.00;;;1.10;;
36105;SDS011;22159;55.736;38.048;2023-02-28T06:01:51;5.45;;;1.17;;
36105;SDS011;22159;55.736;38.048;2023-02-28T06:04:18;1.33;;;0.98;;
36105;SDS011;22159;55.736;38.048;2023-02-28T06:06:46;3.80;;;1.23;;
36105;SDS011;22159;55.736;38.048;2023-02-28T06:09:12;2.58;;;1.02;;
36105;SDS011;22159;55.736;38.048;2023-02-28T06:11:38;4.50;;;1.00;;
36105;SDS011;22159;55.736;38.048;2023-02-28T06:14:04;4.03;;;0.90;;
36105;SDS011;22159;55.736;38.048;2023-02-28T06:16:31;2.50;;;1.30;;
36105;SDS011;22159;55.736;38.048;2023-02-28T06:18:58;3.30;;;1.10;;
36105;SDS011;22159;55.736;38.048;2023-02-28T06:21:24;2.75;;;1.00;;
36105;SDS011;22159;55.736;38.048;2023-02-28T06:23:52;3.20;;;0.90;;
36105;SDS011;22159;55.736;38.048;2023-02-28T06:26:18;2.60;;;0.98;;
36105;SDS011;22159;55.736;38.048;2023-02-28T06:28:44;3.13;;;1.20;;
36105;SDS011;22159;55.736;38.048;2023-02-28T06:31:11;1.90;;;1.15;;
36105;SDS011;22159;55.736;38.048;2023-02-28T06:33:37;2.00;;;0.90;;
36105;SDS011;22159;55.736;38.048;2023-02-28T06:36:03;2.25;;;0.90;;
36105;SDS011;22159;55.736;38.048;2023-02-28T06:38:30;2.33;;;0.93;;
36105;SDS011;22159;55.736;38.048;2023-02-28T06:40:56;2.45;;;1.08;;
36105;SDS011;22159;55.736;38.048;2023-02-28T06:43:23;1.63;;;0.93;;
36105;SDS011;22159;55.736;38.048;2023-02-28T06:45:50;2.25;;;1.00;;
36105;SDS011;22159;55.736;38.048;2023-02-28T06:48:16;2.50;;;0.95;;
36105;SDS011;22159;55.736;38.048;2023-02-28T06:50:42;3.97;;;0.90;;
36105;SDS011;22159;55.736;38.048;2023-02-28T06:53:08;2.05;;;0.90;;
36105;SDS011;22159;55.736;38.048;2023-02-28T06:55:34;5.43;;;1.35;;
36105;SDS011;22159;55.736;38.048;2023-02-28T06:58:03;1.30;;;0.80;;
36105;SDS011;22159;55.736;38.048;2023-02-28T07:00:38;1.80;;;0.82;;
36105;SDS011;22159;55.736;38.048;2023-02-28T07:03:04;2.85;;;0.73;;
36105;SDS011;22159;55.736;38.048;2023-02-28T07:05:30;1.35;;;0.88;;
36105;SDS011;22159;55.736;38.048;2023-02-28T07:07:56;3.67;;;1.08;;
36105;SDS011;22159;55.736;38.048;2023-02-28T07:10:22;0.82;;;0.68;;
36105;SDS011;22159;55.736;38.048;2023-02-28T07:12:48;2.90;;;1.00;;
36105;SDS011;22159;55.736;38.048;2023-02-28T07:15:14;1.38;;;0.85;;
36105;SDS011;22159;55.736;38.048;2023-02-28T07:17:40;1.50;;;0.88;;
36105;SDS011;22159;55.736;38.048;2023-02-28T07:20:06;0.98;;;0.70;;
36105;SDS011;22159;55.736;38.048;2023-02-28T07:22:33;2.53;;;0.88;;
36105;SDS011;22159;55.736;38.048;2023-02-28T07:24:59;1.52;;;1.05;;
36105;SDS011;22159;55.736;38.048;2023-02-28T07:27:25;2.05;;;0.93;;
36105;SDS011;22159;55.736;38.048;2023-02-28T07:29:51;2.08;;;1.00;;
36105;SDS011;22159;55.736;38.048;2023-02-28T07:32:18;1.73;;;0.80;;
36105;SDS011;22159;55.736;38.048;2023-02-28T07:34:44;1.65;;;0.70;;
36105;SDS011;22159;55.736;38.048;2023-02-28T07:37:10;1.27;;;0.82;;
36105;SDS011;22159;55.736;38.048;2023-02-28T07:39:37;1.38;;;0.73;;
36105;SDS011;22159;55.736;38.048;2023-02-28T07:42:06;1.17;;;0.90;;
36105;SDS011;22159;55.736;38.048;2023-02-28T07:44:35;4.53;;;1.00;;
36105;SDS011;22159;55.736;38.048;2023-02-28T07:47:05;2.78;;;0.80;;
36105;SDS011;22159;55.736;38.048;2023-02-28T07:49:31;1.48;;;0.77;;
36105;SDS011;22159;55.736;38.048;2023-02-28T07:51:57;1.60;;;0.73;;
36105;SDS011;22159;55.736;38.048;2023-02-28T07:54:23;1.00;;;0.70;;
36105;SDS011;22159;55.736;38.048;2023-02-28T07:56:49;1.52;;;0.80;;
36105;SDS011;22159;55.736;38.048;2023-02-28T07:59:15;2.28;;;0.70;;
36105;SDS011;22159;55.736;38.048;2023-02-28T08:01:41;1.35;;;0.90;;
36105;SDS011;22159;55.736;38.048;2023-02-28T08:04:09;3.33;;;1.08;;
36105;SDS011;22159;55.736;38.048;2023-02-28T08:06:35;2.08;;;0.93;;
36105;SDS011;22159;55.736;38.048;2023-02-28T08:09:01;0.93;;;0.75;;
36105;SDS011;22159;55.736;38.048;2023-02-28T08:11:27;1.58;;;0.80;;
36105;SDS011;22159;55.736;38.048;2023-02-28T08:13:54;0.95;;;0.75;;
36105;SDS011;22159;55.736;38.048;2023-02-28T08:16:20;1.05;;;0.60;;
36105;SDS011;22159;55.736;38.048;2023-02-28T08:18:47;2.22;;;0.95;;
36105;SDS011;22159;55.736;38.048;2023-02-28T08:21:14;1.15;;;0.65;;
36105;SDS011;22159;55.736;38.048;2023-02-28T08:23:40;1.45;;;0.90;;
36105;SDS011;22159;55.736;38.048;2023-02-28T08:26:06;2.13;;;0.60;;
36105;SDS011;22159;55.736;38.048;2023-02-28T08:28:32;1.70;;;0.80;;
36105;SDS011;22159;55.736;38.048;2023-02-28T08:30:58;1.17;;;0.60;;
36105;SDS011;22159;55.736;38.048;2023-02-28T08:33:25;0.77;;;0.65;;
36105;SDS011;22159;55.736;38.048;2023-02-28T08:35:54;1.27;;;0.80;;
36105;SDS011;22159;55.736;38.048;2023-02-28T08:38:20;0.90;;;0.70;;
36105;SDS011;22159;55.736;38.048;2023-02-28T08:40:46;1.30;;;0.80;;
36105;SDS011;22159;55.736;38.048;2023-02-28T08:43:13;1.67;;;0.65;;
36105;SDS011;22159;55.736;38.048;2023-02-28T08:45:39;1.63;;;0.70;;
36105;SDS011;22159;55.736;38.048;2023-02-28T08:48:05;1.25;;;0.70;;
36105;SDS011;22159;55.736;38.048;2023-02-28T08:50:31;1.95;;;0.63;;
36105;SDS011;22159;55.736;38.048;2023-02-28T08:52:57;1.55;;;0.47;;
36105;SDS011;22159;55.736;38.048;2023-02-28T08:55:23;1.17;;;0.82;;
36105;SDS011;22159;55.736;38.048;2023-02-28T08:57:49;1.50;;;0.93;;
36105;SDS011;22159;55.736;38.048;2023-02-28T09:00:15;1.58;;;0.75;;
36105;SDS011;22159;55.736;38.048;2023-02-28T09:02:42;1.20;;;0.60;;
36105;SDS011;22159;55.736;38.048;2023-02-28T09:05:08;0.75;;;0.57;;
36105;SDS011;22159;55.736;38.048;2023-02-28T09:07:35;0.68;;;0.55;;
36105;SDS011;22159;55.736;38.048;2023-02-28T09:10:01;1.73;;;0.73;;
36105;SDS011;22159;55.736;38.048;2023-02-28T09:12:27;1.17;;;0.82;;
36105;SDS011;22159;55.736;38.048;2023-02-28T09:14:57;0.70;;;0.55;;
36105;SDS011;22159;55.736;38.048;2023-02-28T09:17:23;1.75;;;0.70;;
36105;SDS011;22159;55.736;38.048;2023-02-28T09:19:49;1.00;;;0.70;;
36105;SDS011;22159;55.736;38.048;2023-02-28T09:22:15;1.63;;;0.70;;
36105;SDS011;22159;55.736;38.048;2023-02-28T09:24:41;2.60;;;0.85;;
36105;SDS011;22159;55.736;38.048;2023-02-28T09:27:09;0.70;;;0.50;;
36105;SDS011;22159;55.736;38.048;2023-02-28T09:29:35;1.08;;;0.80;;
36105;SDS011;22159;55.736;38.048;2023-02-28T09:32:01;2.78;;;0.80;;
36105;SDS011;22159;55.736;38.048;2023-02-28T09:34:28;2.50;;;0.52;;
36105;SDS011;22159;55.736;38.048;2023-02-28T09:36:57;1.45;;;0.63;;
36105;SDS011;22159;55.736;38.048;2023-02-28T09:39:23;1.52;;;0.60;;
36105;SDS011;22159;55.736;38.048;2023-02-28T09:41:52;1.45;;;0.80;;
36105;SDS011;22159;55.736;38.048;2023-02-28T09:46:48;1.00;;;0.70;;
36105;SDS011;22159;55.736;38.048;2023-02-28T09:49:25;1.10;;;0.65;;
36105;SDS011;22159;55.736;38.048;2023-02-28T09:51:59;2.20;;;0.60;;
36105;SDS011;22159;55.736;38.048;2023-02-28T09:54:31;0.88;;;0.70;;
36105;SDS011;22159;55.736;38.048;2023-02-28T09:57:08;3.13;;;0.90;;
36105;SDS011;22159;55.736;38.048;2023-02-28T10:05:13;1.63;;;0.90;;
36105;SDS011;22159;55.736;38.048;2023-02-28T10:07:45;1.63;;;0.50;;
36105;SDS011;22159;55.736;38.048;2023-02-28T10:10:28;1.02;;;0.85;;
36105;SDS011;22159;55.736;38.048;2023-02-28T10:15:21;0.93;;;0.60;;
36105;SDS011;22159;55.736;38.048;2023-02-28T10:17:50;1.25;;;0.50;;
36105;SDS011;22159;55.736;38.048;2023-02-28T10:20:19;2.13;;;0.80;;
36105;SDS011;22159;55.736;38.048;2023-02-28T10:25:19;0.88;;;0.70;;
36105;SDS011;22159;55.736;38.048;2023-02-28T10:30:12;0.63;;;0.63;;
36105;SDS011;22159;55.736;38.048;2023-02-28T10:32:39;2.20;;;0.70;;
36105;SDS011;22159;55.736;38.048;2023-02-28T10:35:29;0.85;;;0.60;;
36105;SDS011;22159;55.736;38.048;2023-02-28T10:37:56;0.82;;;0.52;;
36105;SDS011;22159;55.736;38.048;2023-02-28T10:40:33;2.25;;;0.95;;
36105;SDS011;22159;55.736;38.048;2023-02-28T10:43:19;1.45;;;0.60;;
36105;SDS011;22159;55.736;38.048;2023-02-28T10:48:34;0.95;;;0.70;;
36105;SDS011;22159;55.736;38.048;2023-02-28T10:51:02;1.45;;;0.50;;
36105;SDS011;22159;55.736;38.048;2023-02-28T10:53:33;2.47;;;0.57;;
36105;SDS011;22159;55.736;38.048;2023-02-28T10:58:31;1.30;;;0.43;;
36105;SDS011;22159;55.736;38.048;2023-02-28T11:00:58;2.78;;;0.60;;
36105;SDS011;22159;55.736;38.048;2023-02-28T11:05:51;1.52;;;0.50;;
36105;SDS011;22159;55.736;38.048;2023-02-28T11:08:17;0.73;;;0.65;;
36105;SDS011;22159;55.736;38.048;2023-02-28T11:10:44;0.73;;;0.50;;
36105;SDS011;22159;55.736;38.048;2023-02-28T11:13:17;0.77;;;0.60;;
36105;SDS011;22159;55.736;38.048;2023-02-28T11:15:55;1.13;;;0.60;;
36105;SDS011;22159;55.736;38.048;2023-02-28T11:18:23;1.48;;;0.63;;
36105;SDS011;22159;55.736;38.048;2023-02-28T11:20:50;0.60;;;0.50;;
36105;SDS011;22159;55.736;38.048;2023-02-28T11:23:17;1.73;;;0.50;;
36105;SDS011;22159;55.736;38.048;2023-02-28T11:25:49;0.75;;;0.57;;
36105;SDS011;22159;55.736;38.048;2023-02-28T11:30:42;1.08;;;0.63;;
36105;SDS011;22159;55.736;38.048;2023-02-28T11:35:49;0.95;;;0.63;;
36105;SDS011;22159;55.736;38.048;2023-02-28T11:38:16;1.73;;;0.60;;
36105;SDS011;22159;55.736;38.048;2023-02-28T11:49:07;0.98;;;0.45;;
36105;SDS011;22159;55.736;38.048;2023-02-28T11:51:24;1.42;;;0.68;;
36105;SDS011;22159;55.736;38.048;2023-02-28T11:53:59;0.50;;;0.50;;
36105;SDS011;22159;55.736;38.048;2023-02-28T11:59:02;0.73;;;0.43;;
36105;SDS011;22159;55.736;38.048;2023-02-28T12:06:28;1.40;;;0.50;;
36105;SDS011;22159;55.736;38.048;2023-02-28T12:19:17;0.90;;;0.60;;
36105;SDS011;22159;55.736;38.048;2023-02-28T12:27:09;2.00;;;0.55;;
36105;SDS011;22159;55.736;38.048;2023-02-28T12:32:21;0.45;;;0.40;;
36105;SDS011;22159;55.736;38.048;2023-02-28T12:34:50;1.33;;;0.45;;
36105;SDS011;22159;55.736;38.048;2023-02-28T12:37:20;0.50;;;0.50;;
36105;SDS011;22159;55.736;38.048;2023-02-28T12:39:49;0.50;;;0.35;;
36105;SDS011;22159;55.736;38.048;2023-02-28T12:47:26;2.33;;;0.60;;
36105;SDS011;22159;55.736;38.048;2023-02-28T12:49:56;1.17;;;0.60;;
36105;SDS011;22159;55.736;38.048;2023-02-28T12:54:52;1.58;;;0.50;;
36105;SDS011;22159;55.736;38.048;2023-02-28T13:00:08;1.58;;;0.60;;
36105;SDS011;22159;55.736;38.048;2023-02-28T13:05:26;1.33;;;0.50;;
36105;SDS011;22159;55.736;38.048;2023-02-28T13:10:45;1.40;;;0.70;;
36105;SDS011;22159;55.736;38.048;2023-02-28T13:13:16;0.70;;;0.40;;
36105;SDS011;22159;55.736;38.048;2023-02-28T13:15:56;0.93;;;0.60;;
36105;SDS011;22159;55.736;38.048;2023-02-28T13:18:30;0.60;;;0.40;;
36105;SDS011;22159;55.736;38.048;2023-02-28T13:20:57;1.42;;;0.60;;
36105;SDS011;22159;55.736;38.048;2023-02-28T13:26:07;0.85;;;0.50;;
36105;SDS011;22159;55.736;38.048;2023-02-28T13:31:15;1.52;;;0.50;;
36105;SDS011;22159;55.736;38.048;2023-02-28T13:38:41;3.22;;;0.75;;
36105;SDS011;22159;55.736;38.048;2023-02-28T13:46:28;0.88;;;0.50;;
36105;SDS011;22159;55.736;38.048;2023-02-28T13:48:54;0.52;;;0.52;;
36105;SDS011;22159;55.736;38.048;2023-02-28T13:54:11;1.23;;;0.50;;
36105;SDS011;22159;55.736;38.048;2023-02-28T13:56:54;0.95;;;0.60;;
36105;SDS011;22159;55.736;38.048;2023-02-28T13:59:31;1.50;;;0.60;;
36105;SDS011;22159;55.736;38.048;2023-02-28T14:02:11;0.82;;;0.50;;
36105;SDS011;22159;55.736;38.048;2023-02-28T14:04:46;0.75;;;0.55;;
36105;SDS011;22159;55.736;38.048;2023-02-28T14:07:21;1.58;;;0.55;;
36105;SDS011;22159;55.736;38.048;2023-02-28T14:09:51;1.20;;;0.70;;
36105;SDS011;22159;55.736;38.048;2023-02-28T14:17:54;0.93;;;0.70;;
36105;SDS011;22159;55.736;38.048;2023-02-28T14:20:21;1.70;;;0.70;;
36105;SDS011;22159;55.736;38.048;2023-02-28T14:23:12;2.00;;;0.60;;
36105;SDS011;22159;55.736;38.048;2023-02-28T14:25:40;2.08;;;0.65;;
36105;SDS011;22159;55.736;38.048;2023-02-28T14:33:20;2.35;;;0.70;;
36105;SDS011;22159;55.736;38.048;2023-02-28T14:38:27;1.42;;;0.55;;
36105;SDS011;22159;55.736;38.048;2023-02-28T14:40:56;2.08;;;0.57;;
36105;SDS011;22159;55.736;38.048;2023-02-28T14:43:26;0.90;;;0.55;;
36105;SDS011;22159;55.736;38.048;2023-02-28T14:45:59;2.45;;;0.60;;
36105;SDS011;22159;55.736;38.048;2023-02-28T14:48:26;1.33;;;0.70;;
36105;SDS011;22159;55.736;38.048;2023-02-28T14:50:53;1.40;;;0.70;;
36105;SDS011;22159;55.736;38.048;2023-02-28T14:53:21;1.58;;;0.63;;
36105;SDS011;22159;55.736;38.048;2023-02-28T14:55:48;1.05;;;0.60;;
36105;SDS011;22159;55.736;38.048;2023-02-28T14:58:50;1.85;;;0.52;;
36105;SDS011;22159;55.736;38.048;2023-02-28T15:01:09;1.65;;;0.60;;
36105;SDS011;22159;55.736;38.048;2023-02-28T15:03:37;2.55;;;0.90;;
36105;SDS011;22159;55.736;38.048;2023-02-28T15:08:30;1.23;;;0.68;;
36105;SDS011;22159;55.736;38.048;2023-02-28T15:13:31;1.48;;;0.65;;
36105;SDS011;22159;55.736;38.048;2023-02-28T15:16:17;1.50;;;0.70;;
36105;SDS011;22159;55.736;38.048;2023-02-28T15:21:12;2.53;;;0.80;;
36105;SDS011;22159;55.736;38.048;2023-02-28T15:23:39;0.95;;;0.60;;
36105;SDS011;22159;55.736;38.048;2023-02-28T15:26:05;0.98;;;0.60;;
36105;SDS011;22159;55.736;38.048;2023-02-28T15:28:32;1.52;;;0.80;;
36105;SDS011;22159;55.736;38.048;2023-02-28T15:30:59;1.33;;;0.60;;
36105;SDS011;22159;55.736;38.048;2023-02-28T15:33:27;2.13;;;0.80;;
36105;SDS011;22159;55.736;38.048;2023-02-28T15:38:33;1.13;;;0.52;;
36105;SDS011;22159;55.736;38.048;2023-02-28T15:40:59;1.40;;;0.63;;
36105;SDS011;22159;55.736;38.048;2023-02-28T15:48:28;0.50;;;0.50;;
36105;SDS011;22159;55.736;38.048;2023-02-28T15:50:56;0.73;;;0.50;;
36105;SDS011;22159;55.736;38.048;2023-02-28T15:53:25;1.83;;;0.57;;
36105;SDS011;22159;55.736;38.048;2023-02-28T15:55:52;0.45;;;0.45;;
36105;SDS011;22159;55.736;38.048;2023-02-28T15:58:20;0.98;;;0.50;;
36105;SDS011;22159;55.736;38.048;2023-02-28T16:00:59;1.48;;;0.60;;
36105;SDS011;22159;55.736;38.048;2023-02-28T16:03:26;1.10;;;0.47;;
36105;SDS011;22159;55.736;38.048;2023-02-28T16:08:41;0.82;;;0.47;;
36105;SDS011;22159;55.736;38.048;2023-02-28T16:11:10;0.65;;;0.57;;
36105;SDS011;22159;55.736;38.048;2023-02-28T16:13:36;2.22;;;0.90;;
36105;SDS011;22159;55.736;38.048;2023-02-28T16:16:03;1.45;;;0.80;;
36105;SDS011;22159;55.736;38.048;2023-02-28T16:18:29;1.23;;;0.68;;
36105;SDS011;22159;55.736;38.048;2023-02-28T16:20:55;2.20;;;0.65;;
36105;SDS011;22159;55.736;38.048;2023-02-28T16:23:41;1.23;;;0.60;;
36105;SDS011;22159;55.736;38.048;2023-02-28T16:26:07;2.08;;;0.65;;
36105;SDS011;22159;55.736;38.048;2023-02-28T16:28:34;1.00;;;0.50;;
36105;SDS011;22159;55.736;38.048;2023-02-28T16:31:01;1.60;;;0.70;;
36105;SDS011;22159;55.736;38.048;2023-02-28T16:33:29;1.60;;;0.63;;
36105;SDS011;22159;55.736;38.048;2023-02-28T16:35:55;2.03;;;0.70;;
36105;SDS011;22159;55.736;38.048;2023-02-28T16:38:21;1.20;;;0.70;;
36105;SDS011;22159;55.736;38.048;2023-02-28T16:40:48;1.90;;;1.00;;
36105;SDS011;22159;55.736;38.048;2023-02-28T16:43:16;1.75;;;0.70;;
36105;SDS011;22159;55.736;38.048;2023-02-28T16:45:44;2.22;;;0.68;;
36105;SDS011;22159;55.736;38.048;2023-02-28T16:48:14;2.28;;;1.00;;
36105;SDS011;22159;55.736;38.048;2023-02-28T16:50:40;2.55;;;0.90;;
36105;SDS011;22159;55.736;38.048;2023-02-28T16:53:06;2.15;;;0.73;;
36105;SDS011;22159;55.736;38.048;2023-02-28T16:55:32;2.78;;;0.75;;
36105;SDS011;22159;55.736;38.048;2023-02-28T16:57:59;2.65;;;0.75;;
36105;SDS011;22159;55.736;38.048;2023-02-28T17:00:27;2.58;;;0.73;;
36105;SDS011;22159;55.736;38.048;2023-02-28T17:02:53;1.95;;;0.80;;
36105;SDS011;22159;55.736;38.048;2023-02-28T17:05:20;2.65;;;0.98;;
36105;SDS011;22159;55.736;38.048;2023-02-28T17:07:46;9.15;;;1.60;;
36105;SDS011;22159;55.736;38.048;2023-02-28T17:10:14;11.35;;;2.80;;
36105;SDS011;22159;55.736;38.048;2023-02-28T17:12:40;10.60;;;3.00;;
36105;SDS011;22159;55.736;38.048;2023-02-28T17:15:08;13.93;;;3.50;;
36105;SDS011;22159;55.736;38.048;2023-02-28T17:17:34;10.10;;;2.75;;
36105;SDS011;22159;55.736;38.048;2023-02-28T17:20:02;8.70;;;3.00;;